Time,TemperatureF,DewpointF,PressureIn,WindDirection,WindDirectionDegrees,WindSpeedMPH,WindSpeedGustMPH,Humidity,HourlyPrecipIn,Conditions,Clouds,dailyrainin,SoftwareType,DateUTC
2013-04-12 00:00:00,49.8,43.6,29.81,SSW,202,0.0,0.0,79,0.00,CLR,SKC,0.00,WeatherDisplay:10.37,2013-04-11 22:00:00,
2013-04-12 00:05:00,49.6,43.4,29.81,WSW,248,0.0,0.0,79,0.00,CLR,SKC,0.00,WeatherDisplay:10.37,2013-04-11 22:05:00,
2013-04-12 00:10:00,49.6,43.4,29.81,WSW,248,0.0,0.0,79,0.00,CLR,SKC,0.00,WeatherDisplay:10.37,2013-04-11 22:10:00,
2013-04-12 00:15:00,49.1,42.9,29.81,WSW,248,0.0,0.0,79,0.00,CLR,SKC,0.00,WeatherDisplay:10.37,2013-04-11 22:15:00,
2013-04-12 00:20:00,49.1,42.9,29.81,WSW,248,0.0,0.0,79,0.00,CLR,SKC,0.00,WeatherDisplay:10.37,2013-04-11 22:20:00,
2013-04-12 00:25:00,48.9,42.7,29.81,WSW,248,0.0,0.0,79,0.00,CLR,SKC,0.00,WeatherDisplay:10.37,2013-04-11 22:25:00,
2013-04-12 00:30:00,48.7,42.8,29.81,WSW,248,0.0,0.0,80,0.00,CLR,SKC,0.00,WeatherDisplay:10.37,2013-04-11 22:30:00,
2013-04-12 00:35:00,48.4,42.5,29.81,WSW,248,0.0,0.0,80,0.00,CLR,SKC,0.00,WeatherDisplay:10.37,2013-04-11 22:35:00,
2013-04-12 00:40:00,48.0,42.5,29.81,WSW,248,0.0,0.0,81,0.00,CLR,SKC,0.00,WeatherDisplay:10.37,2013-04-11 22:40:00,
2013-04-12 00:45:00,47.8,42.3,29.81,WSW,248,0.0,0.0,81,0.00,CLR,SKC,0.00,WeatherDisplay:10.37,2013-04-11 22:45:00,
2013-04-12 00:50:00,47.7,42.1,29.81,WSW,248,0.0,0.0,81,0.00,CLR,SKC,0.00,WeatherDisplay:10.37,2013-04-11 22:50:00,
2013-04-12 00:55:00,47.5,42.3,29.81,SW,225,0.0,0.0,82,0.00,CLR,SKC,0.00,WeatherDisplay:10.37,2013-04-11 22:55:00,
2013-04-12 01:00:00,47.3,42.1,29.81,West,270,0.0,0.0,82,0.00,CLR,SKC,0.00,WeatherDisplay:10.37,2013-04-11 23:00:00,
2013-04-12 01:05:00,47.5,42.3,29.81,West,270,0.0,0.0,82,0.00,CLR,SKC,0.00,WeatherDisplay:10.37,2013-04-11 23:05:00,
2013-04-12 01:10:00,47.5,42.6,29.81,West,270,0.0,0.0,83,0.00,CLR,SKC,0.00,WeatherDisplay:10.37,2013-04-11 23:10:00,
2013-04-12 01:15:00,47.5,42.6,29.80,South,180,0.0,0.0,83,0.00,CLR,SKC,0.00,WeatherDisplay:10.37,2013-04-11 23:15:00,
2013-04-12 01:20:00,47.5,42.6,29.80,NW,315,0.0,0.0,83,0.00,CLR,SKC,0.00,WeatherDisplay:10.37,2013-04-11 23:20:00,
2013-04-12 01:25:00,47.5,42.6,29.80,NW,315,0.0,0.0,83,0.00,CLR,SKC,0.00,WeatherDisplay:10.37,2013-04-11 23:25:00,
2013-04-12 01:30:00,47.5,42.6,29.80,NW,315,0.0,0.0,83,0.00,CLR,SKC,0.00,WeatherDisplay:10.37,2013-04-11 23:30:00,
2013-04-12 01:35:00,48.0,43.1,29.80,SSE,158,0.0,0.0,83,0.00,CLR,SKC,0.00,WeatherDisplay:10.37,2013-04-11 23:35:00,
2013-04-12 01:40:00,48.7,44.1,29.80,West,270,0.0,0.0,84,0.00,CLR,SKC,0.00,WeatherDisplay:10.37,2013-04-11 23:40:00,
2013-04-12 01:45:00,49.3,44.3,29.79,SSE,158,0.0,0.0,83,0.00,CLR,SKC,0.00,WeatherDisplay:10.37,2013-04-11 23:45:00,
2013-04-12 01:50:00,49.3,44.3,29.79,West,270,0.0,0.0,83,0.00,CLR,SKC,0.00,WeatherDisplay:10.37,2013-04-11 23:50:00,
2013-04-12 01:55:00,50.2,44.9,29.79,SE,135,0.0,0.0,82,0.00,CLR,SKC,0.00,WeatherDisplay:10.37,2013-04-11 23:55:00,
2013-04-12 02:00:00,50.4,45.1,29.78,SSW,202,0.8,1.2,82,0.00,CLR,SKC,0.00,WeatherDisplay:10.37,2013-04-12 00:00:00,
2013-04-12 02:05:00,50.4,44.7,29.78,North,0,0.0,0.0,81,0.00,CLR,SKC,0.00,WeatherDisplay:10.37,2013-04-12 00:05:00,
2013-04-12 02:10:00,50.4,44.7,29.78,ESE,112,0.0,0.0,81,0.00,CLR,SKC,0.00,WeatherDisplay:10.37,2013-04-12 00:10:00,
2013-04-12 02:15:00,50.2,44.6,29.78,SE,135,0.0,0.0,81,0.00,CLR,SKC,0.00,WeatherDisplay:10.37,2013-04-12 00:15:00,
2013-04-12 02:20:00,49.8,44.2,29.78,SSE,158,0.0,0.0,81,0.00,CLR,SKC,0.00,WeatherDisplay:10.37,2013-04-12 00:20:00,
2013-04-12 02:25:00,49.8,44.2,29.78,South,180,0.0,0.0,81,0.00,CLR,SKC,0.00,WeatherDisplay:10.37,2013-04-12 00:25:00,
2013-04-12 02:30:00,49.8,44.2,29.79,WSW,248,0.0,0.0,81,0.00,CLR,SKC,0.00,WeatherDisplay:10.37,2013-04-12 00:30:00,
2013-04-12 02:35:00,48.9,43.7,29.78,West,270,0.0,0.0,82,0.00,CLR,SKC,0.00,WeatherDisplay:10.37,2013-04-12 00:35:00,
2013-04-12 02:40:00,48.7,43.5,29.78,WNW,292,0.0,0.0,82,0.00,CLR,SKC,0.00,WeatherDisplay:10.37,2013-04-12 00:40:00,
2013-04-12 02:45:00,48.7,43.5,29.78,South,180,0.0,0.0,82,0.00,CLR,SKC,0.00,WeatherDisplay:10.37,2013-04-12 00:45:00,
2013-04-12 02:50:00,48.6,43.6,29.78,SW,225,0.0,0.0,83,0.00,CLR,SKC,0.00,WeatherDisplay:10.37,2013-04-12 00:50:00,
2013-04-12 02:55:00,48.6,43.6,29.77,ESE,112,0.0,0.0,83,0.00,CLR,SKC,0.00,WeatherDisplay:10.37,2013-04-12 00:55:00,
2013-04-12 03:00:00,48.4,43.5,29.77,ESE,112,0.0,0.0,83,0.00,CLR,SKC,0.00,WeatherDisplay:10.37,2013-04-12 01:00:00,
2013-04-12 03:05:00,48.4,43.5,29.77,ESE,112,0.0,0.0,83,0.00,CLR,SKC,0.00,WeatherDisplay:10.37,2013-04-12 01:05:00,
2013-04-12 03:10:00,48.4,43.8,29.77,SE,135,0.0,0.0,84,0.00,CLR,SKC,0.00,WeatherDisplay:10.37,2013-04-12 01:10:00,
2013-04-12 03:15:00,48.4,43.8,29.77,SE,135,0.0,0.0,84,0.00,CLR,SKC,0.00,WeatherDisplay:10.37,2013-04-12 01:15:00,
2013-04-12 03:20:00,48.2,43.6,29.77,ESE,112,0.0,0.0,84,0.00,CLR,SKC,0.00,WeatherDisplay:10.37,2013-04-12 01:20:00,
2013-04-12 03:25:00,48.4,43.8,29.77,SE,135,0.0,0.0,84,0.00,CLR,SKC,0.00,WeatherDisplay:10.37,2013-04-12 01:25:00,
2013-04-12 03:30:00,48.4,43.8,29.76,East,90,0.4,2.3,84,0.00,CLR,SKC,0.00,WeatherDisplay:10.37,2013-04-12 01:30:00,
2013-04-12 03:35:00,48.4,43.8,29.77,SSE,158,0.0,0.0,84,0.00,CLR,SKC,0.00,WeatherDisplay:10.37,2013-04-12 01:35:00,
2013-04-12 03:40:00,48.6,43.9,29.76,SW,225,0.0,0.0,84,0.00,CLR,SKC,0.00,WeatherDisplay:10.37,2013-04-12 01:40:00,
2013-04-12 03:45:00,48.7,44.1,29.76,South,180,0.0,0.0,84,0.00,CLR,SKC,0.00,WeatherDisplay:10.37,2013-04-12 01:45:00,
2013-04-12 03:53:00,48.7,44.1,29.76,SSW,202,0.0,0.0,84,0.00,CLR,SKC,0.00,WeatherDisplay:10.37,2013-04-12 01:53:00,
2013-04-12 03:58:00,48.6,43.9,29.76,SW,225,0.0,0.0,84,0.00,CLR,SKC,0.00,WeatherDisplay:10.37,2013-04-12 01:58:00,
2013-04-12 04:03:00,48.6,43.9,29.76,SW,225,0.0,0.0,84,0.00,CLR,SKC,0.00,WeatherDisplay:10.37,2013-04-12 02:03:00,
2013-04-12 04:08:00,48.4,43.8,29.76,SW,225,0.0,0.0,84,0.00,CLR,SKC,0.00,WeatherDisplay:10.37,2013-04-12 02:08:00,
2013-04-12 04:13:00,48.4,43.8,29.76,SW,225,0.0,0.0,84,0.00,CLR,SKC,0.00,WeatherDisplay:10.37,2013-04-12 02:13:00,
2013-04-12 04:18:00,48.2,43.9,29.76,WSW,248,0.0,0.0,85,0.00,CLR,SKC,0.00,WeatherDisplay:10.37,2013-04-12 02:18:00,
2013-04-12 04:23:00,48.2,43.9,29.75,WSW,248,0.0,0.0,85,0.00,CLR,SKC,0.00,WeatherDisplay:10.37,2013-04-12 02:23:00,
2013-04-12 04:28:00,48.0,43.7,29.75,WSW,248,0.0,0.0,85,0.00,CLR,SKC,0.00,WeatherDisplay:10.37,2013-04-12 02:28:00,
2013-04-12 04:33:00,48.0,43.7,29.75,WSW,248,0.0,0.0,85,0.00,CLR,SKC,0.00,WeatherDisplay:10.37,2013-04-12 02:33:00,
2013-04-12 04:38:00,47.8,43.5,29.75,WSW,248,0.0,0.0,85,0.00,CLR,SKC,0.00,WeatherDisplay:10.37,2013-04-12 02:38:00,
2013-04-12 04:43:00,48.0,43.7,29.75,WSW,248,0.0,0.0,85,0.00,CLR,SKC,0.00,WeatherDisplay:10.37,2013-04-12 02:43:00,
2013-04-12 04:48:00,47.7,43.4,29.75,WSW,248,0.0,0.0,85,0.00,CLR,SKC,0.00,WeatherDisplay:10.37,2013-04-12 02:48:00,
2013-04-12 04:53:00,47.8,43.9,29.75,WSW,248,0.0,0.0,86,0.00,CLR,SKC,0.00,WeatherDisplay:10.37,2013-04-12 02:53:00,
2013-04-12 04:58:00,47.8,43.9,29.75,WSW,248,0.0,0.0,86,0.00,CLR,SKC,0.00,WeatherDisplay:10.37,2013-04-12 02:58:00,
2013-04-12 05:03:00,47.8,43.9,29.74,WSW,248,0.0,0.0,86,0.00,CLR,SKC,0.00,WeatherDisplay:10.37,2013-04-12 03:03:00,
2013-04-12 05:08:00,47.7,43.7,29.74,WSW,248,0.0,0.0,86,0.00,CLR,SKC,0.00,WeatherDisplay:10.37,2013-04-12 03:08:00,
2013-04-12 05:13:00,47.7,43.7,29.74,WSW,248,0.0,0.0,86,0.00,CLR,SKC,0.00,WeatherDisplay:10.37,2013-04-12 03:13:00,
2013-04-12 05:18:00,47.7,43.7,29.75,WSW,248,0.0,0.0,86,0.00,CLR,SKC,0.00,WeatherDisplay:10.37,2013-04-12 03:18:00,
2013-04-12 05:23:00,47.7,43.7,29.75,WSW,248,0.0,0.0,86,0.00,CLR,SKC,0.00,WeatherDisplay:10.37,2013-04-12 03:23:00,
2013-04-12 05:28:00,47.8,43.9,29.74,WSW,248,0.0,0.0,86,0.00,CLR,SKC,0.00,WeatherDisplay:10.37,2013-04-12 03:28:00,
2013-04-12 05:33:00,47.8,44.2,29.74,WSW,248,0.0,0.0,87,0.00,CLR,SKC,0.00,WeatherDisplay:10.37,2013-04-12 03:33:00,
2013-04-12 05:38:00,47.8,44.2,29.74,WSW,248,0.0,0.0,87,0.00,CLR,SKC,0.00,WeatherDisplay:10.37,2013-04-12 03:38:00,
2013-04-12 05:43:00,47.8,44.2,29.74,SE,135,0.0,0.0,87,0.00,CLR,SKC,0.00,WeatherDisplay:10.37,2013-04-12 03:43:00,
2013-04-12 05:48:00,48.0,44.3,29.74,SE,135,0.0,0.0,87,0.00,CLR,SKC,0.00,WeatherDisplay:10.37,2013-04-12 03:48:00,
2013-04-12 05:53:00,47.8,44.2,29.74,SE,135,0.0,0.0,87,0.00,CLR,SKC,0.00,WeatherDisplay:10.37,2013-04-12 03:53:00,
2013-04-12 05:58:00,47.8,44.2,29.74,SE,135,0.0,0.0,87,0.00,CLR,SKC,0.00,WeatherDisplay:10.37,2013-04-12 03:58:00,
2013-04-12 06:00:00,48.0,44.3,29.74,SE,127,0.0,0.0,87,0.00,CLR,SKC,0.00,WeatherDisplay:10.37,2013-04-12 04:00:00,
2013-04-12 06:01:00,48.4,44.7,29.74,ESE,119,0.0,0.0,87,0.00,CLR,SKC,0.00,WeatherDisplay:10.37,2013-04-12 04:01:00,
2013-04-12 06:06:00,48.7,45.0,29.74,West,270,0.0,0.0,87,0.00,CLR,SKC,0.00,WeatherDisplay:10.37,2013-04-12 04:06:00,
2013-04-12 06:12:00,48.9,44.9,29.74,West,270,0.0,0.0,86,0.00,CLR,SKC,0.00,WeatherDisplay:10.37,2013-04-12 04:12:00,
2013-04-12 06:17:00,48.9,44.9,29.74,NW,306,0.0,0.0,86,0.00,BKN,SKC,0.00,WeatherDisplay:10.37,2013-04-12 04:17:00,
2013-04-12 06:22:00,49.3,45.3,29.74,North,353,0.0,0.0,86,0.00,BKN,SKC,0.00,WeatherDisplay:10.37,2013-04-12 04:22:00,
2013-04-12 06:27:00,49.3,45.3,29.74,NE,34,0.0,0.0,86,0.00,BKN,SKC,0.00,WeatherDisplay:10.37,2013-04-12 04:27:00,
2013-04-12 06:32:00,49.3,45.3,29.74,WNW,292,0.0,0.0,86,0.00,BKN,SKC,0.00,WeatherDisplay:10.37,2013-04-12 04:32:00,
2013-04-12 06:37:00,49.3,45.3,29.74,WNW,292,0.0,0.0,86,0.00,BKN,SKC,0.00,WeatherDisplay:10.37,2013-04-12 04:37:00,
2013-04-12 06:42:00,49.6,45.6,29.74,WNW,292,0.0,0.0,86,0.00,BKN,SKC,0.00,WeatherDisplay:10.37,2013-04-12 04:42:00,
2013-04-12 06:47:00,49.8,45.5,29.74,ENE,68,0.9,1.2,85,0.00,BKN,SKC,0.00,WeatherDisplay:10.37,2013-04-12 04:47:00,
2013-04-12 06:52:00,49.8,45.5,29.73,NW,315,0.0,0.0,85,0.00,BKN,SKC,0.00,WeatherDisplay:10.37,2013-04-12 04:52:00,
2013-04-12 06:57:00,49.8,45.5,29.73,SE,135,0.0,0.0,85,0.00,BKN,SKC,0.00,WeatherDisplay:10.37,2013-04-12 04:57:00,
2013-04-12 07:02:00,49.8,45.5,29.73,SE,135,0.0,0.0,85,0.00,BKN,SKC,0.00,WeatherDisplay:10.37,2013-04-12 05:02:00,
2013-04-12 07:07:00,50.7,46.1,29.74,NNE,22,1.8,2.3,84,0.00,BKN,SKC,0.00,WeatherDisplay:10.37,2013-04-12 05:07:00,
2013-04-12 07:12:00,51.4,46.4,29.74,East,90,1.3,1.3,83,0.00,BKN,SKC,0.00,WeatherDisplay:10.37,2013-04-12 05:12:00,
2013-04-12 07:17:00,51.4,46.4,29.73,South,180,3.6,3.6,83,0.00,-RA,SKC,0.00,WeatherDisplay:10.37,2013-04-12 05:17:00,
2013-04-12 07:22:00,51.4,46.4,29.73,ENE,68,1.6,3.5,83,0.00,-RA,SKC,0.00,WeatherDisplay:10.37,2013-04-12 05:22:00,
2013-04-12 07:27:00,51.4,46.4,29.73,SSE,158,4.2,4.6,83,0.00,-RA,SKC,0.00,WeatherDisplay:10.37,2013-04-12 05:27:00,
2013-04-12 07:32:00,51.4,46.4,29.73,SE,135,0.0,0.0,83,0.00,-RA,SKC,0.00,WeatherDisplay:10.37,2013-04-12 05:32:00,
2013-04-12 07:37:00,51.4,46.4,29.73,SSE,158,5.6,5.8,83,0.00,-RA,SKC,0.00,WeatherDisplay:10.37,2013-04-12 05:37:00,
2013-04-12 07:42:00,51.6,46.6,29.73,SSE,158,0.3,2.3,83,0.00,-RA,SKC,0.00,WeatherDisplay:10.37,2013-04-12 05:42:00,
2013-04-12 07:47:00,51.6,46.6,29.73,SSE,158,0.7,1.2,83,0.00,-RA,SKC,0.00,WeatherDisplay:10.37,2013-04-12 05:47:00,
2013-04-12 07:52:00,51.6,46.6,29.73,ESE,112,0.9,1.2,83,0.00,-RA,SKC,0.00,WeatherDisplay:10.37,2013-04-12 05:52:00,
2013-04-12 07:57:00,51.8,46.8,29.73,ESE,112,0.0,0.0,83,0.00,-RA,SKC,0.00,WeatherDisplay:10.37,2013-04-12 05:57:00,
2013-04-12 08:02:00,52.5,46.9,29.72,SSE,158,0.0,0.0,81,0.00,-RA,SKC,0.00,WeatherDisplay:10.37,2013-04-12 06:02:00,
2013-04-12 08:07:00,52.9,46.9,29.72,SE,135,1.6,3.5,80,0.00,-RA,SKC,0.00,WeatherDisplay:10.37,2013-04-12 06:07:00,
2013-04-12 08:12:00,52.9,46.2,29.72,SSE,158,1.2,3.5,78,0.00,-RA,SKC,0.00,WeatherDisplay:10.37,2013-04-12 06:12:00,
2013-04-12 08:17:00,53.4,46.7,29.72,SE,135,4.5,4.6,78,0.00,BKN,SKC,0.00,WeatherDisplay:10.37,2013-04-12 06:17:00,
2013-04-12 08:22:00,53.8,46.7,29.72,ENE,68,2.2,2.3,77,0.00,BKN,SKC,0.00,WeatherDisplay:10.37,2013-04-12 06:22:00,
2013-04-12 08:27:00,54.1,47.1,29.73,ENE,68,1.1,1.2,77,0.00,BKN,SKC,0.00,WeatherDisplay:10.37,2013-04-12 06:27:00,
2013-04-12 08:32:00,55.2,47.4,29.72,SSW,202,4.4,4.4,75,0.00,BKN,SKC,0.00,WeatherDisplay:10.37,2013-04-12 06:32:00,
2013-04-12 08:37:00,55.6,47.4,29.72,SE,135,1.1,1.2,74,0.00,BKN,SKC,0.00,WeatherDisplay:10.37,2013-04-12 06:37:00,
2013-04-12 08:42:00,56.8,47.5,29.72,South,180,4.1,7.4,71,0.00,BKN,SKC,0.00,WeatherDisplay:10.37,2013-04-12 06:42:00,
2013-04-12 08:47:00,56.8,47.2,29.72,SE,135,1.2,2.3,70,0.00,CLR,SKC,0.00,WeatherDisplay:10.37,2013-04-12 06:47:00,
2013-04-12 08:52:00,57.0,47.3,29.72,SSE,158,0.0,0.0,70,0.00,CLR,SKC,0.00,WeatherDisplay:10.37,2013-04-12 06:52:00,
2013-04-12 08:57:00,57.0,46.9,29.72,East,90,4.5,5.8,69,0.00,CLR,SKC,0.00,WeatherDisplay:10.37,2013-04-12 06:57:00,
2013-04-12 09:02:00,57.0,46.6,29.72,SSE,158,2.8,6.9,68,0.00,CLR,SKC,0.00,WeatherDisplay:10.37,2013-04-12 07:02:00,
2013-04-12 09:07:00,57.4,46.5,29.72,ENE,68,1.4,2.0,67,0.00,CLR,SKC,0.00,WeatherDisplay:10.37,2013-04-12 07:07:00,
2013-04-12 09:12:00,57.9,47.4,29.72,SE,135,2.2,2.3,68,0.00,CLR,SKC,0.00,WeatherDisplay:10.37,2013-04-12 07:12:00,
2013-04-12 09:17:00,58.6,47.7,29.73,SE,135,3.0,3.5,67,0.00,CLR,SKC,0.00,WeatherDisplay:10.37,2013-04-12 07:17:00,
2013-04-12 09:22:00,59.0,47.7,29.72,South,180,2.5,2.5,66,0.00,CLR,SKC,0.00,WeatherDisplay:10.37,2013-04-12 07:22:00,
2013-04-12 09:27:00,59.5,47.8,29.72,SE,135,4.7,4.7,65,0.00,CLR,SKC,0.00,WeatherDisplay:10.37,2013-04-12 07:27:00,
2013-04-12 09:32:00,60.1,48.3,29.72,SW,225,3.1,3.5,65,0.00,CLR,SKC,0.00,WeatherDisplay:10.37,2013-04-12 07:32:00,
2013-04-12 09:37:00,60.4,48.6,29.72,East,90,1.4,2.3,65,0.00,CLR,SKC,0.00,WeatherDisplay:10.37,2013-04-12 07:37:00,
2013-04-12 09:42:00,61.0,47.4,29.72,SE,135,2.8,3.5,61,0.00,CLR,SKC,0.00,WeatherDisplay:10.37,2013-04-12 07:42:00,
2013-04-12 09:47:00,61.3,47.3,29.72,ENE,68,2.4,5.8,60,0.00,CLR,SKC,0.00,WeatherDisplay:10.37,2013-04-12 07:47:00,
2013-04-12 09:52:00,62.1,48.0,29.72,East,90,4.3,4.6,60,0.00,CLR,SKC,0.00,WeatherDisplay:10.37,2013-04-12 07:52:00,
2013-04-12 09:57:00,62.2,48.2,29.72,SE,135,5.5,13.8,60,0.00,CLR,SKC,0.00,WeatherDisplay:10.37,2013-04-12 07:57:00,
2013-04-12 10:02:00,62.1,48.0,29.72,WNW,292,6.5,6.9,60,0.00,CLR,SKC,0.00,WeatherDisplay:10.37,2013-04-12 08:02:00,
2013-04-12 10:07:00,61.9,47.4,29.72,SSE,158,5.1,5.1,59,0.00,CLR,SKC,0.00,WeatherDisplay:10.37,2013-04-12 08:07:00,
2013-04-12 10:12:00,62.2,47.3,29.71,South,180,10.6,11.5,58,0.00,CLR,SKC,0.00,WeatherDisplay:10.37,2013-04-12 08:12:00,
2013-04-12 10:17:00,63.1,47.7,29.71,WNW,292,2.3,2.3,57,0.00,CLR,SKC,0.00,WeatherDisplay:10.37,2013-04-12 08:17:00,
2013-04-12 10:22:00,63.7,48.2,29.72,SW,225,2.9,7.6,57,0.00,CLR,SKC,0.00,WeatherDisplay:10.37,2013-04-12 08:22:00,
2013-04-12 10:27:00,64.0,48.0,29.72,West,270,7.6,12.7,56,0.00,CLR,SKC,0.00,WeatherDisplay:10.37,2013-04-12 08:27:00,
2013-04-12 10:32:00,64.4,48.4,29.72,SSW,202,9.2,9.2,56,0.00,CLR,SKC,0.00,WeatherDisplay:10.37,2013-04-12 08:32:00,
2013-04-12 10:37:00,64.9,48.4,29.71,ENE,68,5.1,6.9,55,0.00,CLR,SKC,0.00,WeatherDisplay:10.37,2013-04-12 08:37:00,
2013-04-12 10:42:00,65.3,48.7,29.71,SSE,158,5.8,5.8,55,0.00,CLR,SKC,0.00,WeatherDisplay:10.37,2013-04-12 08:42:00,
2013-04-12 10:47:00,65.8,48.7,29.71,West,270,6.0,6.0,54,0.00,CLR,SKC,0.00,WeatherDisplay:10.37,2013-04-12 08:47:00,
2013-04-12 10:52:00,66.0,48.9,29.72,SE,135,0.9,2.3,54,0.00,CLR,SKC,0.00,WeatherDisplay:10.37,2013-04-12 08:52:00,
2013-04-12 10:57:00,65.5,48.4,29.71,South,180,1.6,3.5,54,0.00,CLR,SKC,0.00,WeatherDisplay:10.37,2013-04-12 08:57:00,
2013-04-12 11:02:00,65.3,48.2,29.71,WSW,248,0.9,1.2,54,0.00,CLR,SKC,0.00,WeatherDisplay:10.37,2013-04-12 09:02:00,
2013-04-12 11:07:00,65.5,48.9,29.72,South,180,8.5,8.5,55,0.00,CLR,SKC,0.00,WeatherDisplay:10.37,2013-04-12 09:07:00,
2013-04-12 11:12:00,65.1,48.1,29.72,WSW,248,2.0,2.0,54,0.00,CLR,SKC,0.00,WeatherDisplay:10.37,2013-04-12 09:12:00,
2013-04-12 11:17:00,64.9,48.4,29.72,NNE,22,3.8,3.8,55,0.00,CLR,SKC,0.00,WeatherDisplay:10.37,2013-04-12 09:17:00,
2013-04-12 11:22:00,64.6,48.0,29.72,SSE,158,5.1,11.5,55,0.00,CLR,SKC,0.00,WeatherDisplay:10.37,2013-04-12 09:22:00,
2013-04-12 11:27:00,64.6,48.0,29.72,WNW,292,3.6,6.9,55,0.00,CLR,SKC,0.00,WeatherDisplay:10.37,2013-04-12 09:27:00,
2013-04-12 11:32:00,64.6,48.5,29.72,East,90,0.9,1.8,56,0.00,CLR,SKC,0.00,WeatherDisplay:10.37,2013-04-12 09:32:00,
2013-04-12 11:37:00,64.6,48.0,29.72,SSE,158,3.1,5.8,55,0.00,CLR,SKC,0.00,WeatherDisplay:10.37,2013-04-12 09:37:00,
2013-04-12 11:43:00,64.6,48.5,29.72,SE,126,3.0,4.0,56,0.00,CLR,SKC,0.00,WeatherDisplay:10.37,2013-04-12 09:43:00,
2013-04-12 11:48:00,64.6,48.5,29.72,East,101,3.0,5.0,56,0.00,CLR,SKC,0.00,WeatherDisplay:10.37,2013-04-12 09:48:00,
2013-04-12 11:53:00,64.0,48.0,29.73,SW,222,7.0,9.0,56,0.00,CLR,SKC,0.00,WeatherDisplay:10.37,2013-04-12 09:53:00,
2013-04-12 11:58:00,64.0,48.0,29.73,SW,214,5.0,5.0,56,0.00,CLR,SKC,0.00,WeatherDisplay:10.37,2013-04-12 09:58:00,
2013-04-12 12:03:00,63.7,47.7,29.73,South,180,7.5,10.4,56,0.00,CLR,SKC,0.00,WeatherDisplay:10.37,2013-04-12 10:03:00,
2013-04-12 12:08:00,63.7,47.7,29.73,NNE,22,1.7,2.3,56,0.00,CLR,SKC,0.00,WeatherDisplay:10.37,2013-04-12 10:08:00,
2013-04-12 12:13:00,63.7,47.7,29.73,ENE,68,4.1,4.6,56,0.00,CLR,SKC,0.00,WeatherDisplay:10.37,2013-04-12 10:13:00,
2013-04-12 12:18:00,63.9,48.3,29.73,SSE,158,2.9,3.5,57,0.00,BKN,SKC,0.00,WeatherDisplay:10.37,2013-04-12 10:18:00,
2013-04-12 12:23:00,64.2,48.2,29.74,ESE,112,2.9,11.5,56,0.00,BKN,SKC,0.00,WeatherDisplay:10.37,2013-04-12 10:23:00,
2013-04-12 12:28:00,64.2,48.2,29.74,SSW,202,4.7,4.7,56,0.00,BKN,SKC,0.00,WeatherDisplay:10.37,2013-04-12 10:28:00,
2013-04-12 12:33:00,64.2,48.7,29.75,South,180,5.4,5.8,57,0.00,BKN,SKC,0.00,WeatherDisplay:10.37,2013-04-12 10:33:00,
2013-04-12 12:38:00,64.2,48.7,29.75,West,270,3.1,3.8,57,0.00,BKN,SKC,0.00,WeatherDisplay:10.37,2013-04-12 10:38:00,
2013-04-12 12:43:00,64.2,48.7,29.75,South,180,2.9,6.9,57,0.00,BKN,SKC,0.00,WeatherDisplay:10.37,2013-04-12 10:43:00,
2013-04-12 12:48:00,64.0,49.0,29.75,ESE,112,2.0,2.3,58,0.00,BKN,SKC,0.00,WeatherDisplay:10.37,2013-04-12 10:48:00,
2013-04-12 12:53:00,63.5,48.9,29.75,WSW,248,6.0,6.0,59,0.00,BKN,SKC,0.00,WeatherDisplay:10.37,2013-04-12 10:53:00,
2013-04-12 12:58:00,63.1,48.6,29.75,SSE,158,2.2,2.3,59,0.00,BKN,SKC,0.00,WeatherDisplay:10.37,2013-04-12 10:58:00,
2013-04-12 13:03:00,63.1,48.6,29.75,SSE,158,2.2,2.3,59,0.00,BKN,SKC,0.00,WeatherDisplay:10.37,2013-04-12 11:03:00,
2013-04-12 13:08:00,63.5,49.4,29.76,SSE,158,0.3,3.5,60,0.00,BKN,SKC,0.00,WeatherDisplay:10.37,2013-04-12 11:08:00,
2013-04-12 13:13:00,63.5,49.4,29.76,West,270,1.6,3.5,60,0.00,BKN,SKC,0.00,WeatherDisplay:10.37,2013-04-12 11:13:00,
2013-04-12 13:18:00,63.3,49.2,29.76,NE,45,0.0,0.0,60,0.00,CLR,SKC,0.00,WeatherDisplay:10.37,2013-04-12 11:18:00,
2013-04-12 13:23:00,63.0,48.9,29.76,WNW,292,3.1,4.6,60,0.00,CLR,SKC,0.00,WeatherDisplay:10.37,2013-04-12 11:23:00,
2013-04-12 13:28:00,63.0,49.3,29.76,East,90,0.0,0.0,61,0.00,CLR,SKC,0.00,WeatherDisplay:10.37,2013-04-12 11:28:00,
2013-04-12 13:33:00,63.0,49.3,29.76,South,180,1.5,3.5,61,0.02,RA,SKC,0.02,WeatherDisplay:10.37,2013-04-12 11:33:00,
2013-04-12 13:38:00,63.0,49.3,29.76,NNE,22,1.9,2.5,61,0.02,RA,SKC,0.02,WeatherDisplay:10.37,2013-04-12 11:38:00,
2013-04-12 13:43:00,63.1,49.9,29.77,NNE,22,0.0,2.3,62,0.02,CLR,SKC,0.02,WeatherDisplay:10.37,2013-04-12 11:43:00,
2013-04-12 13:48:00,63.0,50.2,29.76,North,0,2.4,3.5,63,0.02,BKN,SKC,0.02,WeatherDisplay:10.37,2013-04-12 11:48:00,
2013-04-12 13:53:00,63.0,50.2,29.76,North,0,2.2,2.3,63,0.02,BKN,SKC,0.02,WeatherDisplay:10.37,2013-04-12 11:53:00,
2013-04-12 13:58:00,62.8,50.4,29.77,West,270,1.7,4.6,64,0.02,BKN,SKC,0.02,WeatherDisplay:10.37,2013-04-12 11:58:00,
2013-04-12 14:04:00,62.4,50.1,29.77,NNW,338,4.2,5.8,64,0.02,BKN,SKC,0.02,WeatherDisplay:10.37,2013-04-12 12:04:00,
2013-04-12 14:09:00,62.4,50.5,29.77,NNE,22,0.7,2.3,65,0.02,BKN,SKC,0.02,WeatherDisplay:10.37,2013-04-12 12:09:00,
2013-04-12 14:14:00,62.4,50.5,29.77,West,270,0.0,0.0,65,0.02,BKN,SKC,0.02,WeatherDisplay:10.37,2013-04-12 12:14:00,
2013-04-12 14:19:00,62.4,50.5,29.77,ENE,68,0.4,1.2,65,0.02,-RA,SKC,0.02,WeatherDisplay:10.37,2013-04-12 12:19:00,
2013-04-12 14:24:00,62.4,50.9,29.77,SSW,202,0.3,1.2,66,0.02,-RA,SKC,0.02,WeatherDisplay:10.37,2013-04-12 12:24:00,
2013-04-12 14:29:00,62.4,50.9,29.77,NNE,22,0.0,0.0,66,0.02,-RA,SKC,0.02,WeatherDisplay:10.37,2013-04-12 12:29:00,
2013-04-12 14:34:00,61.7,50.6,29.77,NE,45,2.8,3.5,67,0.00,-RA,SKC,0.02,WeatherDisplay:10.37,2013-04-12 12:34:00,
2013-04-12 14:39:00,61.5,50.9,29.77,NW,315,0.9,2.3,68,0.00,-RA,SKC,0.02,WeatherDisplay:10.37,2013-04-12 12:39:00,
2013-04-12 14:44:00,61.0,50.7,29.78,North,0,7.6,8.1,69,0.00,-RA,SKC,0.02,WeatherDisplay:10.37,2013-04-12 12:44:00,
2013-04-12 14:49:00,60.6,50.8,29.78,NE,45,0.5,0.0,70,0.00,-RA,SKC,0.02,WeatherDisplay:10.37,2013-04-12 12:49:00,
2013-04-12 14:54:00,60.4,51.4,29.78,North,0,0.8,1.3,72,0.00,-RA,SKC,0.02,WeatherDisplay:10.37,2013-04-12 12:54:00,
2013-04-12 14:59:00,60.1,51.4,29.78,NNE,22,0.6,2.3,73,0.00,-RA,SKC,0.02,WeatherDisplay:10.37,2013-04-12 12:59:00,
2013-04-12 15:04:00,60.1,51.8,29.78,NNE,22,0.0,0.0,74,0.00,-RA,SKC,0.02,WeatherDisplay:10.37,2013-04-12 13:04:00,
2013-04-12 15:09:00,59.9,52.0,29.78,North,0,0.0,0.0,75,0.00,-RA,SKC,0.02,WeatherDisplay:10.37,2013-04-12 13:09:00,
2013-04-12 15:14:00,59.7,51.8,29.78,NNE,22,0.0,0.0,75,0.00,-RA,SKC,0.02,WeatherDisplay:10.37,2013-04-12 13:14:00,
2013-04-12 15:19:00,59.4,51.8,29.78,NNE,22,0.7,2.3,76,0.00,BKN,SKC,0.02,WeatherDisplay:10.37,2013-04-12 13:19:00,
2013-04-12 15:24:00,58.8,50.9,29.79,North,0,3.0,5.8,75,0.00,BKN,SKC,0.02,WeatherDisplay:10.37,2013-04-12 13:24:00,
2013-04-12 15:29:00,58.5,51.3,29.78,West,270,1.8,2.3,77,0.00,BKN,SKC,0.02,WeatherDisplay:10.37,2013-04-12 13:29:00,
2013-04-12 15:34:00,58.1,51.3,29.79,NNW,338,2.1,3.5,78,0.00,BKN,SKC,0.02,WeatherDisplay:10.37,2013-04-12 13:34:00,
2013-04-12 15:39:00,57.9,51.4,29.79,WNW,292,0.9,1.2,79,0.00,BKN,SKC,0.02,WeatherDisplay:10.37,2013-04-12 13:39:00,
2013-04-12 15:44:00,58.6,52.1,29.79,NE,45,1.7,3.5,79,0.00,BKN,SKC,0.02,WeatherDisplay:10.37,2013-04-12 13:44:00,
2013-04-12 15:49:00,58.8,52.0,29.78,NNW,338,2.0,2.3,78,0.00,CLR,SKC,0.02,WeatherDisplay:10.37,2013-04-12 13:49:00,
2013-04-12 15:54:00,59.0,52.1,29.78,NNE,22,0.9,1.2,78,0.00,CLR,SKC,0.02,WeatherDisplay:10.37,2013-04-12 13:54:00,
2013-04-12 15:59:00,59.2,52.0,29.77,NE,45,1.0,1.2,77,0.00,CLR,SKC,0.02,WeatherDisplay:10.37,2013-04-12 13:59:00,
2013-04-12 16:04:00,59.2,52.0,29.77,North,0,2.1,3.5,77,0.00,CLR,SKC,0.02,WeatherDisplay:10.37,2013-04-12 14:04:00,
2013-04-12 16:09:00,59.2,52.0,29.77,NNW,338,0.0,0.0,77,0.00,CLR,SKC,0.02,WeatherDisplay:10.37,2013-04-12 14:09:00,
2013-04-12 16:14:00,59.4,51.8,29.77,North,0,0.0,0.0,76,0.00,CLR,SKC,0.02,WeatherDisplay:10.37,2013-04-12 14:14:00,
2013-04-12 16:19:00,59.4,51.8,29.77,NW,315,0.0,0.0,76,0.00,CLR,SKC,0.02,WeatherDisplay:10.37,2013-04-12 14:19:00,
2013-04-12 16:24:00,59.5,52.0,29.77,NE,45,0.0,0.0,76,0.00,CLR,SKC,0.02,WeatherDisplay:10.37,2013-04-12 14:24:00,
2013-04-12 16:29:00,59.5,51.6,29.77,NW,315,0.0,0.0,75,0.00,CLR,SKC,0.02,WeatherDisplay:10.37,2013-04-12 14:29:00,
2013-04-12 16:34:00,59.5,51.6,29.77,ESE,112,0.7,1.6,75,0.00,CLR,SKC,0.02,WeatherDisplay:10.37,2013-04-12 14:34:00,
2013-04-12 16:39:00,59.7,51.8,29.77,ENE,68,0.0,0.0,75,0.00,CLR,SKC,0.02,WeatherDisplay:10.37,2013-04-12 14:39:00,
2013-04-12 16:44:00,60.1,51.8,29.76,NW,315,0.0,0.0,74,0.00,CLR,SKC,0.02,WeatherDisplay:10.37,2013-04-12 14:44:00,
2013-04-12 16:49:00,59.7,51.4,29.76,NW,315,0.0,0.0,74,0.00,BKN,SKC,0.02,WeatherDisplay:10.37,2013-04-12 14:49:00,
2013-04-12 16:54:00,59.7,51.4,29.77,East,90,0.0,0.0,74,0.00,BKN,SKC,0.02,WeatherDisplay:10.37,2013-04-12 14:54:00,
2013-04-12 16:59:00,59.5,51.2,29.77,East,90,0.0,0.0,74,0.00,BKN,SKC,0.02,WeatherDisplay:10.37,2013-04-12 14:59:00,
2013-04-12 17:04:00,59.5,51.2,29.77,SSE,158,0.0,1.2,74,0.00,BKN,SKC,0.02,WeatherDisplay:10.37,2013-04-12 15:04:00,
2013-04-12 17:09:00,59.4,51.1,29.77,SSE,158,0.0,0.0,74,0.00,BKN,SKC,0.02,WeatherDisplay:10.37,2013-04-12 15:09:00,
2013-04-12 17:14:00,59.4,51.4,29.77,SSE,158,0.0,0.0,75,0.00,BKN,SKC,0.02,WeatherDisplay:10.37,2013-04-12 15:14:00,
2013-04-12 17:19:00,59.2,51.3,29.77,SSE,158,0.0,0.0,75,0.00,CLR,SKC,0.02,WeatherDisplay:10.37,2013-04-12 15:19:00,
2013-04-12 17:24:00,59.2,51.3,29.77,SSE,158,0.9,1.2,75,0.00,CLR,SKC,0.02,WeatherDisplay:10.37,2013-04-12 15:24:00,
2013-04-12 17:29:00,58.8,50.9,29.77,SE,135,0.0,0.0,75,0.00,CLR,SKC,0.02,WeatherDisplay:10.37,2013-04-12 15:29:00,
2013-04-12 17:34:00,58.8,50.9,29.77,ESE,112,0.0,0.0,75,0.00,CLR,SKC,0.02,WeatherDisplay:10.37,2013-04-12 15:34:00,
2013-04-12 17:39:00,59.0,51.4,29.76,SSE,158,0.1,0.0,76,0.00,CLR,SKC,0.02,WeatherDisplay:10.37,2013-04-12 15:39:00,
2013-04-12 17:44:00,59.2,51.3,29.77,South,180,0.0,0.0,75,0.00,CLR,SKC,0.02,WeatherDisplay:10.37,2013-04-12 15:44:00,
2013-04-12 17:49:00,59.2,51.3,29.76,South,180,0.0,0.0,75,0.00,CLR,SKC,0.02,WeatherDisplay:10.37,2013-04-12 15:49:00,
2013-04-12 17:54:00,59.0,51.1,29.77,SSE,158,0.0,0.0,75,0.00,CLR,SKC,0.02,WeatherDisplay:10.37,2013-04-12 15:54:00,
2013-04-12 17:59:00,59.0,51.1,29.77,SSE,158,0.0,0.0,75,0.00,CLR,SKC,0.02,WeatherDisplay:10.37,2013-04-12 15:59:00,
2013-04-12 18:04:00,59.0,51.1,29.77,SSE,158,0.0,0.0,75,0.00,CLR,SKC,0.02,WeatherDisplay:10.37,2013-04-12 16:04:00,
2013-04-12 18:09:00,58.5,51.3,29.77,South,180,0.0,0.0,77,0.00,CLR,SKC,0.02,WeatherDisplay:10.37,2013-04-12 16:09:00,
2013-04-12 18:14:00,57.7,50.6,29.77,WNW,292,0.0,0.0,77,0.00,CLR,SKC,0.02,WeatherDisplay:10.37,2013-04-12 16:14:00,
2013-04-12 18:19:00,57.4,51.6,29.77,WNW,292,0.0,0.0,81,0.02,RA,SKC,0.04,WeatherDisplay:10.37,2013-04-12 16:19:00,
2013-04-12 18:24:00,57.0,51.6,29.76,WNW,292,0.0,0.0,82,0.02,RA,SKC,0.04,WeatherDisplay:10.37,2013-04-12 16:24:00,
2013-04-12 18:30:00,57.0,51.9,29.76,West,270,0.0,0.0,83,0.02,,SKC,0.04,WeatherDisplay:10.37,2013-04-12 16:30:00,
2013-04-12 18:35:00,56.5,51.7,29.76,West,270,0.0,1.2,84,0.02,CLR,SKC,0.04,WeatherDisplay:10.37,2013-04-12 16:35:00,
2013-04-12 18:40:00,56.5,51.7,29.76,WNW,286,0.0,0.0,84,0.00,CLR,SKC,0.04,WeatherDisplay:10.37,2013-04-12 16:40:00,
2013-04-12 18:45:00,56.2,51.5,29.76,WNW,293,0.0,0.0,84,0.00,CLR,SKC,0.04,WeatherDisplay:10.37,2013-04-12 16:45:00,
2013-04-12 18:50:00,56.1,51.6,29.76,West,280,0.0,0.0,85,0.00,CLR,SKC,0.04,WeatherDisplay:10.37,2013-04-12 16:50:00,
2013-04-12 18:55:00,55.9,51.5,29.76,WNW,288,0.0,0.0,85,0.00,CLR,SKC,0.04,WeatherDisplay:10.37,2013-04-12 16:55:00,
2013-04-12 19:00:00,55.4,51.3,29.76,NW,310,0.0,0.0,86,0.00,CLR,SKC,0.04,WeatherDisplay:10.37,2013-04-12 17:00:00,
2013-04-12 19:05:00,55.2,51.4,29.77,NW,315,0.0,0.0,87,0.00,RA,SKC,0.06,WeatherDisplay:10.37,2013-04-12 17:05:00,
2013-04-12 19:10:00,55.2,51.4,29.77,NW,315,0.0,0.0,87,0.00,RA,SKC,0.06,WeatherDisplay:10.37,2013-04-12 17:10:00,
2013-04-12 19:15:00,55.0,51.2,29.76,NW,315,0.0,0.0,87,0.00,CLR,SKC,0.06,WeatherDisplay:10.37,2013-04-12 17:15:00,
2013-04-12 19:20:00,54.9,51.4,29.76,WNW,294,0.0,0.0,88,0.00,BKN,SKC,0.06,WeatherDisplay:10.37,2013-04-12 17:20:00,
2013-04-12 19:25:00,54.8,51.3,29.76,WSW,250,0.0,0.0,88,0.00,BKN,SKC,0.06,WeatherDisplay:10.37,2013-04-12 17:25:00,
2013-04-12 19:30:00,54.7,51.2,29.77,NW,315,0.0,0.0,88,0.02,BKN,SKC,0.06,WeatherDisplay:10.37,2013-04-12 17:30:00,
2013-04-12 19:35:00,54.5,51.3,29.78,NW,315,0.0,0.0,89,0.02,BKN,SKC,0.06,WeatherDisplay:10.37,2013-04-12 17:35:00,
2013-04-12 19:40:00,54.5,51.3,29.79,NW,315,0.0,0.0,89,0.00,BKN,SKC,0.06,WeatherDisplay:10.37,2013-04-12 17:40:00,
2013-04-12 19:45:00,54.5,51.3,29.78,WNW,302,0.0,0.0,89,0.00,BKN,SKC,0.06,WeatherDisplay:10.37,2013-04-12 17:45:00,
2013-04-12 19:50:00,54.3,51.4,29.79,WNW,297,0.0,1.0,90,0.02,RA,SKC,0.08,WeatherDisplay:10.37,2013-04-12 17:50:00,
2013-04-12 19:55:00,54.3,51.1,29.78,WNW,292,0.0,0.0,89,0.04,RA,SKC,0.08,WeatherDisplay:10.37,2013-04-12 17:55:00,
2013-04-12 20:00:00,54.1,51.0,29.79,WNW,292,1.0,1.0,89,0.00,BKN,SKC,0.08,WeatherDisplay:10.37,2013-04-12 18:00:00,
2013-04-12 20:05:00,54.0,50.8,29.80,West,270,1.9,3.5,89,0.02,BKN,SKC,0.08,WeatherDisplay:10.37,2013-04-12 18:05:00,
2013-04-12 20:10:00,54.0,50.8,29.81,West,270,3.0,4.6,89,0.02,BKN,SKC,0.08,WeatherDisplay:10.37,2013-04-12 18:10:00,
2013-04-12 20:17:00,54.0,50.8,29.81,WNW,289,3.0,3.0,89,0.00,BKN,SKC,0.08,WeatherDisplay:10.37,2013-04-12 18:17:00,
2013-04-12 20:23:00,53.8,50.6,29.81,WNW,292,2.0,2.3,89,0.04,RA,SKC,0.10,WeatherDisplay:10.37,2013-04-12 18:23:00,
2013-04-12 20:28:00,53.8,50.6,29.81,NW,315,1.4,2.3,89,0.04,RA,SKC,0.10,WeatherDisplay:10.37,2013-04-12 18:28:00,
2013-04-12 21:26:00,52.0,48.5,29.83,NW,316,5.0,5.0,88,0.00,BKN,SKC,0.16,WeatherDisplay:10.37,2013-04-12 19:26:00,
2013-04-12 21:27:00,52.0,48.5,29.83,NW,316,5.1,5.1,88,0.06,BKN,SKC,0.16,WeatherDisplay:10.37,2013-04-12 19:27:00,
2013-04-12 21:28:00,51.4,48.0,29.83,WNW,292,3.3,4.6,88,0.06,BKN,SKC,0.16,WeatherDisplay:10.37,2013-04-12 19:28:00,
2013-04-12 21:33:00,51.4,48.0,29.83,NNW,338,6.0,7.4,88,0.06,RA,SKC,0.18,WeatherDisplay:10.37,2013-04-12 19:33:00,
2013-04-12 21:38:00,51.4,48.0,29.83,West,270,1.6,5.8,88,0.06,RA,SKC,0.18,WeatherDisplay:10.37,2013-04-12 19:38:00,
2013-04-12 21:43:00,51.3,47.8,29.84,NW,315,6.1,7.6,88,0.04,BKN,SKC,0.18,WeatherDisplay:10.37,2013-04-12 19:43:00,
2013-04-12 21:48:00,51.3,47.8,29.84,WNW,292,6.0,6.0,88,0.04,BKN,SKC,0.18,WeatherDisplay:10.37,2013-04-12 19:48:00,
2013-04-12 21:54:00,51.3,47.8,29.83,WNW,292,6.0,6.0,88,0.02,BKN,SKC,0.18,WeatherDisplay:10.37,2013-04-12 19:54:00,
2013-04-12 21:59:00,50.9,47.8,29.83,NNW,338,6.4,6.9,89,0.02,BKN,SKC,0.18,WeatherDisplay:10.37,2013-04-12 19:59:00,
2013-04-12 22:04:00,50.7,47.6,29.83,NW,315,4.0,4.6,89,0.02,BKN,SKC,0.18,WeatherDisplay:10.37,2013-04-12 20:04:00,
2013-04-12 22:09:00,50.7,47.6,29.83,NW,315,3.6,3.6,89,0.02,BKN,SKC,0.18,WeatherDisplay:10.37,2013-04-12 20:09:00,
2013-04-12 22:14:00,50.7,47.6,29.84,WNW,292,4.2,4.6,89,0.02,BKN,SKC,0.18,WeatherDisplay:10.37,2013-04-12 20:14:00,
2013-04-12 22:19:00,50.7,47.6,29.83,WNW,292,4.5,5.8,89,0.02,BKN,SKC,0.18,WeatherDisplay:10.37,2013-04-12 20:19:00,
2013-04-12 22:24:00,50.5,47.4,29.83,NW,315,0.0,3.5,89,0.02,BKN,SKC,0.18,WeatherDisplay:10.37,2013-04-12 20:24:00,
2013-04-12 22:29:00,50.5,47.4,29.83,WNW,292,6.0,7.4,89,0.02,BKN,SKC,0.18,WeatherDisplay:10.37,2013-04-12 20:29:00,
2013-04-12 22:34:00,50.5,47.4,29.83,WNW,292,6.9,8.7,89,0.00,BKN,SKC,0.18,WeatherDisplay:10.37,2013-04-12 20:34:00,
2013-04-12 22:39:00,50.4,47.2,29.83,NNW,338,10.7,10.7,89,0.00,BKN,SKC,0.18,WeatherDisplay:10.37,2013-04-12 20:39:00,
2013-04-12 22:44:00,50.4,47.2,29.83,NW,315,7.6,8.1,89,0.00,BKN,SKC,0.18,WeatherDisplay:10.37,2013-04-12 20:44:00,
2013-04-12 22:49:00,50.2,47.1,29.83,WNW,292,4.5,4.6,89,0.00,BKN,SKC,0.18,WeatherDisplay:10.37,2013-04-12 20:49:00,
2013-04-12 22:54:00,50.2,47.1,29.83,NNW,338,4.7,6.9,89,0.00,BKN,SKC,0.18,WeatherDisplay:10.37,2013-04-12 20:54:00,
2013-04-12 22:59:00,50.2,47.1,29.83,WNW,292,2.5,2.5,89,0.00,BKN,SKC,0.18,WeatherDisplay:10.37,2013-04-12 20:59:00,
2013-04-12 23:04:00,50.2,47.1,29.83,NNE,22,2.5,2.5,89,0.00,BKN,SKC,0.18,WeatherDisplay:10.37,2013-04-12 21:04:00,
2013-04-12 23:09:00,50.2,46.8,29.83,WNW,292,0.0,4.0,88,0.00,BKN,SKC,0.18,WeatherDisplay:10.37,2013-04-12 21:09:00,
2013-04-12 23:14:00,50.2,47.1,29.84,WNW,292,1.1,5.8,89,0.00,BKN,SKC,0.18,WeatherDisplay:10.37,2013-04-12 21:14:00,
2013-04-12 23:19:00,50.2,47.1,29.84,WNW,292,5.0,5.0,89,0.00,SCT,SKC,0.18,WeatherDisplay:10.37,2013-04-12 21:19:00,
2013-04-12 23:24:00,50.2,47.1,29.83,WNW,292,5.0,5.0,89,0.00,SCT,SKC,0.18,WeatherDisplay:10.37,2013-04-12 21:24:00,
2013-04-12 23:29:00,50.2,47.1,29.83,WNW,292,4.0,4.0,89,0.00,SCT,SKC,0.18,WeatherDisplay:10.37,2013-04-12 21:29:00,
2013-04-12 23:34:00,49.8,46.7,29.83,West,270,3.8,5.8,89,0.00,SCT,SKC,0.18,WeatherDisplay:10.37,2013-04-12 21:34:00,
2013-04-12 23:39:00,49.8,46.7,29.83,WNW,288,5.0,7.0,89,0.00,SCT,SKC,0.18,WeatherDisplay:10.37,2013-04-12 21:39:00,
2013-04-12 23:44:00,49.8,46.7,29.83,West,270,5.8,5.8,89,0.00,SCT,SKC,0.18,WeatherDisplay:10.37,2013-04-12 21:44:00,
2013-04-12 23:49:00,49.8,46.7,29.83,West,270,5.8,5.8,89,0.00,SCT,SKC,0.18,WeatherDisplay:10.37,2013-04-12 21:49:00,
2013-04-12 23:54:00,49.5,46.4,29.83,WNW,283,0.0,0.0,89,0.00,SCT,SKC,0.18,WeatherDisplay:10.37,2013-04-12 21:54:00,
2013-04-12 23:59:00,49.3,46.2,29.83,NNW,327,0.0,1.0,89,0.00,SCT,SKC,0.18,WeatherDisplay:10.37,2013-04-12 21:59:00,